Terminal Aerodrome Forecast
Issued by NWS

Home | Current Version | Previous Version | Text Only | Print | Product List | Glossary On
Versions: 1 2 3 4 5 6 7 8 9 10 11 12 13 14 15 16 17 18 19 20 21 22 23 24 25 26 27
000
FTUS46 KLOX 192359 CCA
TAFSBA
TAF COR
KSBA 192359Z 2000/2024 27010G18KT P6SM SCT040 BKN070
     FM200200 29008KT P6SM SCT015 SCT040
     FM200700 VRB03KT P6SM VCSH BKN020 BKN090
     FM201100 10012KT 5SM -RA BR BKN015 OVC025
     FM201500 11015G25KT 2SM RA BR BKN007 OVC015
     FM201900 25020G30KT 4SM -RA BR BKN015 OVC025=

USA.gov is the U.S. government's official web portal to all federal, state and local government web resources and services.